Time;durP1;ratioP1;P1;durP2;ratioP2;P2;SDS_P1;SDS_P2;PMS_P1;PMS_P2;Temp;Humidity;BMP_temperature;BMP_pressure;BME280_temperature;BME280_humidity;BME280_pressure;Samples;Min_cycle;Max_cycle;Signal;HPM_P1;HPM_P2
2024/04/16 00:05:50;;;;;;;20.50;11.40;;;;;;;10.16;75.48;98568.59;681318;1267;138986;-77
2024/04/16 00:20:53;;;;;;;24.90;12.70;;;;;;;10.17;75.23;98533.83;681309;1264;139077;-78
2024/04/16 00:35:57;;;;;;;30.70;12.60;;;;;;;10.19;75.09;98510.14;681383;1267;138992;-77
2024/04/16 00:51:00;;;;;;;23.80;13.70;;;;;;;10.04;76.12;98456.73;681150;1267;139222;-77
2024/04/16 01:06:03;;;;;;;40.70;22.60;;;;;;;9.96;76.54;98413.52;681260;1267;139395;-78
2024/04/16 01:21:06;;;;;;;27.30;14.00;;;;;;;10.04;77.18;98379.60;681307;1269;138820;-78
2024/04/16 01:36:10;;;;;;;23.70;12.60;;;;;;;10.02;77.73;98354.66;681445;1263;138855;-78
2024/04/16 01:51:13;;;;;;;25.40;12.40;;;;;;;9.89;81.08;98342.20;681313;1263;138920;-78
2024/04/16 02:06:16;;;;;;;23.00;13.70;;;;;;;9.93;83.89;98333.00;681212;1263;138734;-78
2024/04/16 02:21:19;;;;;;;21.30;12.40;;;;;;;9.88;87.68;98326.64;681239;1266;139292;-78
2024/04/16 02:36:23;;;;;;;21.20;12.80;;;;;;;9.71;91.84;98316.96;681316;1269;139605;-78
2024/04/16 02:51:26;;;;;;;18.30;11.90;;;;;;;9.58;95.57;98289.36;681303;1265;138992;-77
2024/04/16 03:06:29;;;;;;;23.20;13.60;;;;;;;9.53;96.16;98233.92;681581;1262;138712;-78
2024/04/16 03:21:33;;;;;;;24.90;13.60;;;;;;;9.57;95.63;98197.28;681274;1263;139521;-78
2024/04/16 03:36:36;;;;;;;26.40;14.40;;;;;;;9.56;95.31;98191.52;681610;1264;139391;-78
2024/04/16 03:51:39;;;;;;;21.50;12.50;;;;;;;9.46;97.25;98201.64;681507;1267;140330;-78
2024/04/16 04:06:42;;;;;;;25.00;12.60;;;;;;;9.39;97.29;98177.59;681376;1268;139162;-78
2024/04/16 04:21:45;;;;;;;24.40;14.30;;;;;;;9.41;97.96;98176.00;681383;1267;139075;-79
2024/04/16 04:36:49;;;;;;;24.50;13.90;;;;;;;9.09;100.00;98172.58;681474;1269;140148;-79
2024/04/16 04:51:52;;;;;;;8.00;4.40;;;;;;;8.87;100.00;98192.06;681545;1263;139771;-79
2024/04/16 05:06:55;;;;;;;5.20;1.80;;;;;;;8.37;99.81;98219.52;681660;1267;139344;-78
2024/04/16 05:21:58;;;;;;;25.40;11.60;;;;;;;7.98;99.65;98251.64;681663;1269;140795;-79
2024/04/16 05:37:02;;;;;;;1.70;1.30;;;;;;;7.47;99.63;98282.78;682238;1267;138804;-77
2024/04/16 05:52:07;;;;;;;2.80;1.70;;;;;;;7.21;99.13;98297.91;682062;1266;138178;-78
2024/04/16 06:07:10;;;;;;;4.20;2.20;;;;;;;6.73;99.46;98311.90;681438;1265;138462;-77
2024/04/16 06:22:13;;;;;;;4.10;2.30;;;;;;;6.97;100.00;98307.14;681164;1262;139385;-78
2024/04/16 06:37:16;;;;;;;8.10;4.30;;;;;;;7.40;100.00;98316.57;681356;1265;138946;-79
2024/04/16 06:52:19;;;;;;;7.80;4.00;;;;;;;7.68;100.00;98318.52;681017;1265;139632;-78
2024/04/16 07:07:24;;;;;;;14.10;5.10;;;;;;;7.91;100.00;98326.78;681042;1265;139218;-78
2024/04/16 07:22:28;;;;;;;5.90;3.90;;;;;;;8.15;99.38;98346.19;680942;1266;139131;-79
2024/04/16 07:37:32;;;;;;;13.00;8.50;;;;;;;8.20;97.11;98374.58;681085;1264;138388;-79
2024/04/16 07:52:35;;;;;;;11.30;5.60;;;;;;;8.38;92.77;98384.15;681195;1265;139664;-79
2024/04/16 08:07:38;;;;;;;16.50;6.60;;;;;;;8.57;88.90;98401.55;681489;1265;139080;-79
2024/04/16 08:22:42;;;;;;;16.70;6.20;;;;;;;8.90;83.25;98405.95;681603;1268;139392;-80
2024/04/16 08:37:45;;;;;;;13.10;4.40;;;;;;;9.33;81.11;98427.61;681398;1267;140261;-79
2024/04/16 08:52:57;;;;;;;11.20;4.90;;;;;;;9.30;79.81;98451.43;681321;1268;139249;-79
2024/04/16 09:08:04;;;;;;;12.20;6.50;;;;;;;9.42;77.92;98467.38;681086;1266;139214;-80
2024/04/16 09:23:11;;;;;;;10.70;4.20;;;;;;;10.51;74.14;98477.41;681061;1268;139330;-79
2024/04/16 09:38:15;;;;;;;881.10;386.30;;;;;;;11.29;67.62;98490.32;681499;1263;140726;-78
2024/04/16 09:53:19;;;;;;;10.20;5.20;;;;;;;11.76;64.81;98494.11;681608;1263;140130;-78
2024/04/16 10:08:25;;;;;;;11.90;7.10;;;;;;;9.67;73.68;98536.45;681041;1267;139294;-77
2024/04/16 10:23:29;;;;;;;6.20;3.90;;;;;;;10.19;77.27;98530.14;681624;1268;139315;-78
2024/04/16 10:38:36;;;;;;;9.70;3.70;;;;;;;11.60;70.01;98519.85;681200;1267;225960;-79
2024/04/16 10:53:40;;;;;;;7.00;3.30;;;;;;;12.08;64.16;98505.58;681550;1267;139186;-78
2024/04/16 11:08:44;;;;;;;8.60;3.30;;;;;;;12.39;61.43;98495.43;681408;1267;140209;-80
2024/04/16 11:23:49;;;;;;;6.70;3.20;;;;;;;12.09;61.29;98501.89;681667;1266;138051;-81
2024/04/16 11:38:53;;;;;;;5.90;2.50;;;;;;;13.12;59.92;98503.14;681559;1267;138365;-81
2024/04/16 11:53:56;;;;;;;4.80;2.60;;;;;;;12.65;59.00;98502.04;681198;1266;138108;-80
2024/04/16 12:09:00;;;;;;;4.40;2.20;;;;;;;11.97;60.05;98522.78;681027;1264;139635;-80
2024/04/16 12:24:04;;;;;;;4.70;2.00;;;;;;;13.54;58.42;98513.85;681614;1268;138006;-82
2024/04/16 12:39:07;;;;;;;4.20;1.90;;;;;;;13.73;55.43;98503.33;681574;1269;138765;-81
2024/04/16 12:54:20;;;;;;;7.50;2.20;;;;;;;14.47;54.39;98502.50;681241;1269;138686;-80
2024/04/16 13:09:25;;;;;;;8.40;2.80;;;;;;;13.92;54.62;98495.89;681351;1268;139196;-81
2024/04/16 13:24:29;;;;;;;5.00;2.70;;;;;;;13.25;56.66;98492.39;681162;1267;139019;-82
2024/04/16 13:39:32;;;;;;;4.10;3.00;;;;;;;14.16;55.63;98492.88;681274;1268;139028;-82
2024/04/16 13:54:36;;;;;;;2.10;1.30;;;;;;;14.47;55.04;98496.15;681694;1267;139063;-82
2024/04/16 14:09:40;;;;;;;5.00;1.80;;;;;;;13.99;56.38;98500.03;681464;1269;139035;-86
2024/04/16 14:24:45;;;;;;;3.40;1.60;;;;;;;13.54;57.20;98507.41;681204;1267;139032;-81
2024/04/16 14:39:48;;;;;;;4.20;2.40;;;;;;;13.27;58.41;98508.92;681480;1271;138122;-82
2024/04/16 14:54:53;;;;;;;3.00;1.70;;;;;;;12.97;58.54;98524.38;681365;1269;138555;-79
2024/04/16 15:09:56;;;;;;;2.80;2.10;;;;;;;12.21;61.37;98547.38;681149;1269;139862;-80
2024/04/16 15:24:59;;;;;;;3.90;2.50;;;;;;;12.21;62.33;98549.53;680995;1269;187970;-80
2024/04/16 15:40:03;;;;;;;5.70;2.80;;;;;;;12.65;62.14;98543.58;681077;1271;139281;-80
2024/04/16 15:55:20;;;;;;;14.30;9.50;;;;;;;12.86;60.40;98562.11;681461;1270;138198;-79
2024/04/16 16:10:23;;;;;;;11.00;6.00;;;;;;;12.62;58.96;98567.67;682353;1271;138599;-81
2024/04/16 16:25:26;;;;;;;47.70;22.70;;;;;;;12.54;59.95;98558.86;681995;1263;138121;-80
2024/04/16 16:40:30;;;;;;;17.60;6.20;;;;;;;11.72;62.49;98579.85;681799;1276;140028;-79
2024/04/16 16:55:34;;;;;;;3.80;1.70;;;;;;;10.81;64.00;98604.21;681540;1267;139423;-81
2024/04/16 17:10:39;;;;;;;8.70;6.00;;;;;;;10.38;64.29;98610.68;681742;1275;137797;-81
2024/04/16 17:25:42;;;;;;;8.70;3.50;;;;;;;9.95;65.26;98622.94;681449;1264;139104;-81
2024/04/16 17:40:46;;;;;;;15.20;6.90;;;;;;;9.46;68.85;98637.85;681628;1267;138274;-81
2024/04/16 17:55:50;;;;;;;9.60;3.70;;;;;;;9.28;72.62;98636.77;681312;1263;141313;-80
2024/04/16 18:10:53;;;;;;;37.80;14.10;;;;;;;9.05;75.49;98657.35;681641;1263;139568;-80
2024/04/16 18:25:57;;;;;;;20.40;8.50;;;;;;;9.15;74.76;98658.19;681570;1264;139716;-80
2024/04/16 18:41:00;;;;;;;9.30;4.20;;;;;;;8.88;75.37;98677.70;681670;1263;138391;-81
2024/04/16 18:56:10;;;;;;;8.00;3.30;;;;;;;8.53;76.74;98683.77;681271;1264;138951;-80
2024/04/16 19:11:13;;;;;;;9.30;5.00;;;;;;;8.54;76.68;98675.79;681647;1262;138253;-81
2024/04/16 19:26:21;;;;;;;11.10;4.60;;;;;;;8.73;76.59;98677.16;681438;1266;139062;-79
2024/04/16 19:41:25;;;;;;;8.60;5.80;;;;;;;8.41;77.76;98681.63;681356;1263;139341;-80
2024/04/16 19:56:30;;;;;;;9.20;4.50;;;;;;;8.12;80.63;98683.48;681453;1267;138453;-80
2024/04/16 20:11:33;;;;;;;9.70;5.80;;;;;;;8.28;82.51;98678.52;681514;1266;138515;-80
2024/04/16 20:26:37;;;;;;;13.30;6.10;;;;;;;8.34;83.06;98675.47;681356;1264;138750;-80
2024/04/16 20:41:40;;;;;;;10.30;4.80;;;;;;;8.23;84.05;98674.27;681402;1266;139334;-82
2024/04/16 20:56:44;;;;;;;7.90;3.70;;;;;;;8.32;84.25;98680.56;681323;1263;139536;-81
2024/04/16 21:11:48;;;;;;;9.10;3.40;;;;;;;8.39;84.77;98680.82;681464;1264;139913;-79
2024/04/16 21:26:51;;;;;;;15.40;5.80;;;;;;;8.43;85.85;98691.54;681441;1264;139100;-80
2024/04/16 21:41:55;;;;;;;5.90;3.60;;;;;;;8.49;86.89;98691.67;681476;1263;138656;-80
2024/04/16 21:56:58;;;;;;;6.70;4.10;;;;;;;8.51;87.67;98690.08;681333;1263;138601;-81
2024/04/16 22:12:01;;;;;;;7.00;4.10;;;;;;;8.48;88.15;98696.68;681619;1262;138838;-81
2024/04/16 22:27:04;;;;;;;5.90;3.70;;;;;;;8.37;88.49;98696.23;681451;1263;139443;-80
2024/04/16 22:42:07;;;;;;;17.50;8.40;;;;;;;8.43;88.73;98708.11;681385;1262;199727;-82
2024/04/16 22:57:10;;;;;;;12.30;5.20;;;;;;;8.44;89.30;98720.02;681316;1262;139479;-81
2024/04/16 23:12:13;;;;;;;7.90;4.90;;;;;;;8.49;89.90;98739.04;681520;1263;140100;-81
2024/04/16 23:27:17;;;;;;;7.60;4.20;;;;;;;8.37;91.03;98742.41;681574;1267;139184;-81
2024/04/16 23:42:20;;;;;;;8.20;4.90;;;;;;;8.38;91.42;98754.77;681610;1262;138587;-81
2024/04/16 23:57:22;;;;;;;8.60;4.10;;;;;;;8.39;91.99;98746.86;681621;1267;140010;-80
